createdAt,value
2023-04-04T00:01:12.790Z,98627.22
2023-04-04T00:03:41.593Z,98629.16
2023-04-04T00:06:09.775Z,98631.19
2023-04-04T00:08:39.203Z,98631.78
2023-04-04T00:11:08.017Z,98623.91
2023-04-04T00:13:36.166Z,98622.09
2023-04-04T00:16:04.380Z,98622.94
2023-04-04T00:18:32.830Z,98626.50
2023-04-04T00:21:02.051Z,98629.16
2023-04-04T00:23:30.153Z,98629.47
2023-04-04T00:26:00.119Z,98628.22
2023-04-04T00:28:28.630Z,98631.78
2023-04-04T00:30:57.084Z,98631.19
2023-04-04T00:33:26.321Z,98636.38
2023-04-04T00:35:58.719Z,98630.97
2023-04-04T00:38:27.242Z,98637.03
2023-04-04T00:40:55.997Z,98630.22
2023-04-04T00:43:26.085Z,98626.69
2023-04-04T00:45:55.066Z,98626.81
2023-04-04T00:48:25.517Z,98630.22
2023-04-04T00:50:53.785Z,98633.00
2023-04-04T00:53:22.442Z,98633.06
2023-04-04T00:55:50.572Z,98635.78
2023-04-04T00:58:20.926Z,98640.16
2023-04-04T01:00:50.637Z,98634.00
2023-04-04T01:03:19.575Z,98639.28
2023-04-04T01:05:47.571Z,98640.25
2023-04-04T01:08:15.926Z,98632.41
2023-04-04T01:10:43.969Z,98631.59
2023-04-04T01:13:12.054Z,98639.50
2023-04-04T01:15:41.139Z,98631.44
2023-04-04T01:18:13.393Z,98632.09
2023-04-04T01:20:45.049Z,98627.78
2023-04-04T01:23:13.148Z,98632.19
2023-04-04T01:25:42.926Z,98626.88
2023-04-04T01:28:11.367Z,98630.28
2023-04-04T01:30:39.535Z,98617.22
2023-04-04T01:33:09.688Z,98616.47
2023-04-04T01:35:42.446Z,98610.19
2023-04-04T01:38:25.852Z,98620.22
2023-04-04T01:40:57.283Z,98620.88
2023-04-04T01:43:25.264Z,98614.94
2023-04-04T01:45:53.554Z,98622.28
2023-04-04T01:48:22.396Z,98615.09
2023-04-04T01:50:50.659Z,98615.94
2023-04-04T01:53:18.692Z,98615.00
2023-04-04T01:55:47.111Z,98607.81
2023-04-04T01:58:16.729Z,98600.94
2023-04-04T02:00:44.675Z,98599.69
2023-04-04T02:03:12.729Z,98605.47
2023-04-04T02:05:41.008Z,98610.91
2023-04-04T02:08:08.988Z,98607.38
2023-04-04T02:10:36.943Z,98600.19
2023-04-04T02:13:05.009Z,98604.78
2023-04-04T02:15:34.643Z,98601.97
2023-04-04T02:18:03.641Z,98597.34
2023-04-04T02:20:31.783Z,98592.41
2023-04-04T02:22:59.785Z,98595.16
2023-04-04T02:25:27.931Z,98598.84
2023-04-04T02:27:56.177Z,98596.97
2023-04-04T02:30:24.220Z,98596.97
2023-04-04T02:32:53.650Z,98592.19
2023-04-04T02:35:21.731Z,98593.59
2023-04-04T02:37:50.066Z,98590.13
2023-04-04T02:40:19.201Z,98590.91
2023-04-04T02:42:47.173Z,98582.34
2023-04-04T02:45:15.284Z,98584.66
2023-04-04T02:47:43.767Z,98577.84
2023-04-04T02:50:13.774Z,98582.22
2023-04-04T02:52:41.796Z,98582.13
2023-04-04T02:55:10.618Z,98582.06
2023-04-04T02:57:38.650Z,98582.34
2023-04-04T03:00:08.207Z,98584.91
2023-04-04T03:02:36.379Z,98583.19
2023-04-04T03:05:07.129Z,98579.53
2023-04-04T03:07:38.611Z,98587.41
2023-04-04T03:10:07.422Z,98580.81
2023-04-04T03:12:35.481Z,98583.28
2023-04-04T03:15:05.498Z,98579.09
2023-04-04T03:17:33.911Z,98588.75
2023-04-04T03:20:01.920Z,98588.06
2023-04-04T03:22:29.862Z,98590.72
2023-04-04T03:24:59.806Z,98594.41
2023-04-04T03:27:27.756Z,98591.94
2023-04-04T03:29:55.735Z,98590.91
2023-04-04T03:32:23.760Z,98591.81
2023-04-04T03:34:52.142Z,98590.22
2023-04-04T03:37:20.170Z,98583.91
2023-04-04T03:39:48.519Z,98587.38
2023-04-04T03:42:18.040Z,98572.66
2023-04-04T03:44:46.306Z,98579.75
2023-04-04T03:47:15.130Z,98580.81
2023-04-04T03:49:43.142Z,98586.72
2023-04-04T03:52:12.435Z,98577.03
2023-04-04T03:54:41.810Z,98574.59
2023-04-04T03:57:09.889Z,98573.81
2023-04-04T03:59:41.880Z,98565.44
2023-04-04T04:02:09.946Z,98572.34
2023-04-04T04:04:37.972Z,98564.97
2023-04-04T04:07:06.037Z,98573.13
2023-04-04T04:09:34.113Z,98562.13
2023-04-04T04:12:02.469Z,98559.09
2023-04-04T04:14:30.582Z,98559.16
2023-04-04T04:17:00.457Z,98568.34
2023-04-04T04:19:28.456Z,98554.69
2023-04-04T04:22:00.327Z,98560.38
2023-04-04T04:24:29.193Z,98559.06
2023-04-04T04:27:00.889Z,98557.84
2023-04-04T04:29:30.147Z,98558.75
2023-04-04T04:32:00.999Z,98558.63
2023-04-04T04:34:29.330Z,98556.69
2023-04-04T04:36:58.002Z,98554.00
2023-04-04T04:39:26.070Z,98556.25
2023-04-04T04:41:54.544Z,98550.59
2023-04-04T04:44:22.472Z,98554.41
2023-04-04T04:46:50.522Z,98562.25
2023-04-04T04:49:19.950Z,98561.38
2023-04-04T04:51:49.304Z,98555.38
2023-04-04T04:54:17.317Z,98562.47
2023-04-04T04:56:45.675Z,98559.06
2023-04-04T04:59:15.161Z,98551.19
2023-04-04T05:01:43.158Z,98548.66
2023-04-04T05:04:11.605Z,98550.31
2023-04-04T05:06:41.070Z,98549.84
2023-04-04T05:09:09.013Z,98557.31
2023-04-04T05:11:37.037Z,98565.75
2023-04-04T05:14:05.173Z,98559.09
2023-04-04T05:16:33.434Z,98567.53
2023-04-04T05:19:01.847Z,98564.84
2023-04-04T05:21:29.850Z,98568.66
2023-04-04T05:23:59.973Z,98567.81
2023-04-04T05:26:29.689Z,98564.19
2023-04-04T05:28:59.309Z,98571.94
2023-04-04T05:31:27.510Z,98568.66
2023-04-04T05:33:56.329Z,98568.56
2023-04-04T05:36:24.430Z,98569.63
2023-04-04T05:38:52.447Z,98567.59
2023-04-04T05:41:22.196Z,98572.53
2023-04-04T05:43:50.188Z,98577.38
2023-04-04T05:46:19.352Z,98570.22
2023-04-04T05:48:47.384Z,98570.84
2023-04-04T05:51:16.278Z,98575.00
2023-04-04T05:53:47.926Z,98578.66
2023-04-04T05:56:17.324Z,98580.44
2023-04-04T05:58:47.131Z,98573.47
2023-04-04T06:01:15.141Z,98588.16
2023-04-04T06:03:43.220Z,98579.91
2023-04-04T06:06:12.051Z,98575.88
2023-04-04T06:08:53.004Z,98581.03
2023-04-04T06:11:21.933Z,98581.47
2023-04-04T06:13:52.943Z,98589.84
2023-04-04T06:16:21.072Z,98587.16
2023-04-04T06:18:49.172Z,98583.50
2023-04-04T06:21:17.714Z,98591.91
2023-04-04T06:23:45.736Z,98589.22
2023-04-04T06:26:14.906Z,98593.50
2023-04-04T06:28:49.717Z,98591.50
2023-04-04T06:31:21.934Z,98595.72
2023-04-04T06:33:49.972Z,98600.03
2023-04-04T06:36:18.342Z,98601.41
2023-04-04T06:38:46.475Z,98610.84
2023-04-04T06:41:14.477Z,98599.28
2023-04-04T06:43:42.585Z,98602.72
2023-04-04T06:46:10.906Z,98610.19
2023-04-04T06:48:40.287Z,98612.72
2023-04-04T06:51:08.998Z,98609.59
2023-04-04T06:53:37.451Z,98612.50
2023-04-04T06:56:05.893Z,98613.28
2023-04-04T06:58:34.193Z,98612.34
2023-04-04T07:01:03.122Z,98612.34
2023-04-04T07:03:31.208Z,98605.50
2023-04-04T07:06:03.807Z,98608.19
2023-04-04T07:08:36.082Z,98617.97
2023-04-04T07:11:05.259Z,98610.31
2023-04-04T07:13:33.623Z,98606.50
2023-04-04T07:16:01.843Z,98619.66
2023-04-04T07:18:29.935Z,98618.72
2023-04-04T07:20:58.514Z,98623.13
2023-04-04T07:23:29.229Z,98625.81
2023-04-04T07:25:57.317Z,98624.25
2023-04-04T07:28:25.457Z,98618.47
2023-04-04T07:30:53.422Z,98619.00
2023-04-04T07:33:21.479Z,98611.09
2023-04-04T07:35:49.628Z,98612.00
2023-04-04T07:38:17.824Z,98624.47
2023-04-04T07:40:47.362Z,98614.88
2023-04-04T07:43:15.307Z,98620.56
2023-04-04T07:45:43.963Z,98617.47
2023-04-04T07:48:11.997Z,98618.44
2023-04-04T07:50:40.118Z,98614.09
2023-04-04T07:53:08.553Z,98605.84
2023-04-04T07:55:37.757Z,98615.41
2023-04-04T07:58:08.296Z,98611.88
2023-04-04T08:00:37.075Z,98608.94
2023-04-04T08:03:05.321Z,98608.00
2023-04-04T08:05:33.371Z,98605.97
2023-04-04T08:08:01.849Z,98608.94
2023-04-04T08:10:29.812Z,98602.28
2023-04-04T08:12:58.915Z,98600.53
2023-04-04T08:15:33.762Z,98586.88
2023-04-04T08:18:02.129Z,98591.16
2023-04-04T08:20:30.335Z,98596.84
2023-04-04T08:22:58.621Z,98596.53
2023-04-04T08:25:27.166Z,98590.78
2023-04-04T08:27:58.087Z,98583.47
2023-04-04T08:30:26.378Z,98583.22
2023-04-04T08:32:56.030Z,98582.69
2023-04-04T08:35:25.434Z,98581.44
2023-04-04T08:37:53.763Z,98579.63
2023-04-04T08:40:21.919Z,98578.84
2023-04-04T08:42:50.149Z,98568.63
2023-04-04T08:45:19.462Z,98574.34
2023-04-04T08:47:48.386Z,98579.44
2023-04-04T08:50:18.560Z,98577.25
2023-04-04T08:52:46.619Z,98570.47
2023-04-04T08:55:15.622Z,98577.88
2023-04-04T08:57:43.675Z,98580.41
2023-04-04T09:00:13.293Z,98580.53
2023-04-04T09:02:44.451Z,98572.72
2023-04-04T09:05:14.004Z,98579.97
2023-04-04T09:07:43.690Z,98571.91
2023-04-04T09:10:15.222Z,98581.47
2023-04-04T09:12:44.921Z,98586.22
2023-04-04T09:15:13.717Z,98589.28
2023-04-04T09:17:41.831Z,98588.16
2023-04-04T09:20:35.251Z,98585.25
2023-04-04T09:23:06.484Z,98584.44
2023-04-04T09:25:34.711Z,98582.34
2023-04-04T09:28:05.591Z,98575.94
2023-04-04T09:30:35.613Z,98586.41
2023-04-04T09:33:05.472Z,98579.47
2023-04-04T09:35:35.135Z,98577.91
2023-04-04T09:38:04.622Z,98583.84
2023-04-04T09:40:33.193Z,98572.00
2023-04-04T09:43:02.288Z,98577.97
2023-04-04T09:45:32.589Z,98577.78
2023-04-04T09:48:01.311Z,98566.44
2023-04-04T09:50:30.474Z,98578.91
2023-04-04T09:52:59.371Z,98571.53
2023-04-04T09:55:36.521Z,98572.75
2023-04-04T09:58:13.060Z,98570.47
2023-04-04T10:00:42.946Z,98569.13
2023-04-04T10:03:11.069Z,98559.31
2023-04-04T10:05:39.453Z,98559.09
2023-04-04T10:08:17.959Z,98558.19
2023-04-04T10:11:02.503Z,98548.72
2023-04-04T10:13:37.145Z,98555.84
2023-04-04T10:16:05.697Z,98553.13
2023-04-04T10:18:34.619Z,98558.09
2023-04-04T10:21:15.114Z,98557.03
2023-04-04T10:23:46.630Z,98543.56
2023-04-04T10:26:16.187Z,98552.66
2023-04-04T10:28:44.320Z,98534.97
2023-04-04T10:31:18.577Z,98535.50
2023-04-04T10:33:49.792Z,98536.63
2023-04-04T10:36:21.417Z,98537.47
2023-04-04T10:38:53.054Z,98529.31
2023-04-04T10:41:22.486Z,98534.50
2023-04-04T10:43:51.227Z,98518.53
2023-04-04T10:46:20.592Z,98521.50
2023-04-04T10:48:48.683Z,98517.41
2023-04-04T10:51:19.405Z,98522.72
2023-04-04T10:53:47.443Z,98512.72
2023-04-04T10:56:15.471Z,98504.06
2023-04-04T10:58:48.235Z,98505.78
2023-04-04T11:01:21.530Z,98508.53
2023-04-04T11:04:27.245Z,98502.78
2023-04-04T11:07:18.210Z,98495.50
2023-04-04T11:10:26.014Z,98490.25
2023-04-04T11:13:09.338Z,98504.50
2023-04-04T11:15:48.928Z,98493.66
2023-04-04T11:18:31.597Z,98492.34
2023-04-04T11:21:03.750Z,98490.19
2023-04-04T11:23:40.422Z,98494.81
2023-04-04T11:26:09.270Z,98479.66
2023-04-04T11:28:47.402Z,98482.31
2023-04-04T11:31:32.675Z,98476.66
2023-04-04T11:34:04.464Z,98485.34
2023-04-04T11:36:56.471Z,98483.03
2023-04-04T11:39:28.545Z,98475.66
2023-04-04T11:41:58.924Z,98480.91
2023-04-04T11:44:30.764Z,98472.56
2023-04-04T11:47:06.076Z,98471.75
2023-04-04T11:49:35.774Z,98471.81
2023-04-04T11:52:05.934Z,98470.34
2023-04-04T11:54:33.978Z,98462.53
2023-04-04T11:57:03.581Z,98474.72
2023-04-04T11:59:31.764Z,98466.53
2023-04-04T12:02:02.947Z,98464.41
2023-04-04T12:04:33.095Z,98455.13
2023-04-04T12:07:01.242Z,98464.16
2023-04-04T12:09:29.264Z,98450.97
2023-04-04T12:11:58.118Z,98452.22
2023-04-04T12:14:27.269Z,98432.19
2023-04-04T12:16:56.811Z,98444.97
2023-04-04T12:19:24.875Z,98443.16
2023-04-04T12:21:54.591Z,98443.06
2023-04-04T12:24:22.695Z,98447.66
2023-04-04T12:26:52.457Z,98434.03
2023-04-04T12:29:21.664Z,98438.72
2023-04-04T12:31:49.750Z,98437.34
2023-04-04T12:34:23.433Z,98436.19
2023-04-04T12:36:54.794Z,98419.09
2023-04-04T12:39:23.987Z,98417.31
2023-04-04T12:41:57.414Z,98411.94
2023-04-04T12:44:29.260Z,98405.97
2023-04-04T12:46:58.888Z,98408.00
2023-04-04T12:49:30.320Z,98412.59
2023-04-04T12:52:04.437Z,98401.19
2023-04-04T12:54:33.228Z,98396.50
2023-04-04T12:57:04.355Z,98392.47
2023-04-04T12:59:34.047Z,98397.38
2023-04-04T13:02:03.641Z,98390.13
2023-04-04T13:04:31.723Z,98385.69
2023-04-04T13:07:02.045Z,98380.28
2023-04-04T13:09:30.161Z,98379.41
2023-04-04T13:12:00.136Z,98373.94
2023-04-04T13:14:28.681Z,98384.31
2023-04-04T13:17:05.860Z,98380.44
2023-04-04T13:19:34.437Z,98375.88
2023-04-04T13:22:03.945Z,98383.44
2023-04-04T13:24:32.156Z,98365.59
2023-04-04T13:27:01.019Z,98370.03
2023-04-04T13:29:29.068Z,98357.53
2023-04-04T13:31:57.646Z,98349.25
2023-04-04T13:34:26.770Z,98352.56
2023-04-04T13:36:56.356Z,98351.56
2023-04-04T13:39:25.873Z,98356.06
2023-04-04T13:41:53.990Z,98350.97
2023-04-04T13:44:21.971Z,98346.38
2023-04-04T13:46:50.018Z,98357.94
2023-04-04T13:49:19.173Z,98346.69
2023-04-04T13:51:47.985Z,98339.22
2023-04-04T13:54:16.257Z,98338.81
2023-04-04T13:56:46.942Z,98335.97
2023-04-04T13:59:14.941Z,98329.75
2023-04-04T14:01:43.241Z,98320.19
2023-04-04T14:07:11.202Z,98323.25
2023-04-04T14:09:39.672Z,98317.13
2023-04-04T14:12:09.368Z,98316.84
2023-04-04T14:14:37.953Z,98323.06
2023-04-04T14:17:06.399Z,98307.53
2023-04-04T14:19:34.563Z,98305.94
2023-04-04T14:22:02.715Z,98308.28
2023-04-04T14:24:30.670Z,98302.06
2023-04-04T14:26:59.048Z,98297.22
2023-04-04T14:29:28.465Z,98304.88
2023-04-04T14:31:58.061Z,98300.50
2023-04-04T14:34:28.072Z,98294.63
2023-04-04T14:36:56.122Z,98290.56
2023-04-04T14:39:25.473Z,98290.16
2023-04-04T14:41:54.002Z,98294.25
2023-04-04T14:44:22.485Z,98285.09
2023-04-04T14:46:53.068Z,98291.09
2023-04-04T14:49:21.132Z,98285.53
2023-04-04T14:51:50.119Z,98282.56
2023-04-04T14:54:18.206Z,98278.59
2023-04-04T14:56:47.439Z,98276.19
2023-04-04T14:59:19.850Z,98278.41
2023-04-04T15:01:55.162Z,98274.97
2023-04-04T15:04:25.160Z,98270.81
2023-04-04T15:06:53.691Z,98260.97
2023-04-04T15:09:21.743Z,98269.19
2023-04-04T15:11:52.441Z,98263.34
2023-04-04T15:14:20.763Z,98255.19
2023-04-04T15:16:48.886Z,98262.66
2023-04-04T15:19:16.975Z,98261.84
2023-04-04T15:21:49.200Z,98264.28
2023-04-04T15:24:18.613Z,98263.13
2023-04-04T15:26:47.405Z,98264.31
2023-04-04T15:29:15.785Z,98248.56
2023-04-04T15:31:43.909Z,98254.75
2023-04-04T15:34:12.672Z,98253.16
2023-04-04T15:36:44.379Z,98253.28
2023-04-04T15:39:14.005Z,98251.25
2023-04-04T15:41:42.159Z,98251.16
2023-04-04T15:44:10.329Z,98250.69
2023-04-04T15:46:38.755Z,98240.56
2023-04-04T15:49:06.933Z,98246.88
2023-04-04T15:51:36.293Z,98238.94
2023-04-04T15:54:04.346Z,98237.00
2023-04-04T15:56:33.783Z,98233.56
2023-04-04T15:59:01.854Z,98232.06
2023-04-04T16:01:30.250Z,98239.03
2023-04-04T16:03:58.811Z,98237.31
2023-04-04T16:06:27.289Z,98241.69
2023-04-04T16:08:55.614Z,98234.72
2023-04-04T16:11:23.736Z,98238.47
2023-04-04T16:13:53.369Z,98251.00
2023-04-04T16:16:21.824Z,98228.00
2023-04-04T16:18:50.207Z,98224.81
2023-04-04T16:21:18.343Z,98239.38
2023-04-04T16:23:47.491Z,98233.16
2023-04-04T16:26:17.478Z,98226.47
2023-04-04T16:28:47.185Z,98233.59
2023-04-04T16:31:17.938Z,98228.94
2023-04-04T16:33:47.798Z,98229.97
2023-04-04T16:36:15.927Z,98237.28
2023-04-04T16:38:46.146Z,98233.28
2023-04-04T16:41:14.195Z,98229.81
2023-04-04T16:43:43.013Z,98220.66
2023-04-04T16:46:11.060Z,98219.53
2023-04-04T16:48:40.572Z,98219.84
2023-04-04T16:51:08.633Z,98220.88
2023-04-04T16:53:37.243Z,98217.56
2023-04-04T16:56:05.860Z,98218.19
2023-04-04T16:58:33.907Z,98226.91
2023-04-04T17:01:02.415Z,98224.06
2023-04-04T17:03:30.829Z,98221.22
2023-04-04T17:06:01.826Z,98217.00
2023-04-04T17:08:29.893Z,98225.22
2023-04-04T17:10:57.855Z,98217.03
2023-04-04T17:13:25.899Z,98215.72
2023-04-04T17:15:54.142Z,98218.88
2023-04-04T17:18:22.070Z,98219.63
2023-04-04T17:20:50.125Z,98218.69
2023-04-04T17:23:19.545Z,98215.06
2023-04-04T17:25:47.631Z,98216.47
2023-04-04T17:28:15.688Z,98221.44
2023-04-04T17:30:43.705Z,98218.16
2023-04-04T17:33:11.716Z,98219.44
2023-04-04T17:35:40.314Z,98215.53
2023-04-04T17:38:08.343Z,98220.56
2023-04-04T17:40:40.714Z,98226.72
2023-04-04T17:43:09.410Z,98223.19
2023-04-04T17:45:37.857Z,98219.72
2023-04-04T17:48:06.673Z,98219.34
2023-04-04T17:50:34.713Z,98212.28
2023-04-04T17:53:02.970Z,98218.22
2023-04-04T17:55:30.935Z,98218.69
2023-04-04T17:58:00.539Z,98224.56
2023-04-04T18:00:29.805Z,98225.50
2023-04-04T18:02:58.205Z,98215.72
2023-04-04T18:05:27.128Z,98220.03
2023-04-04T18:07:55.168Z,98217.47
2023-04-04T18:10:23.207Z,98223.56
2023-04-04T18:12:52.166Z,98217.78
2023-04-04T18:15:21.628Z,98222.69
2023-04-04T18:17:49.775Z,98217.28
2023-04-04T18:20:27.739Z,98220.06
2023-04-04T18:23:07.114Z,98219.53
2023-04-04T18:25:35.305Z,98220.13
2023-04-04T18:28:06.782Z,98224.56
2023-04-04T18:30:37.466Z,98213.84
2023-04-04T18:33:05.824Z,98215.66
2023-04-04T18:35:34.141Z,98214.44
2023-04-04T18:40:30.684Z,98222.81
2023-04-04T18:43:03.218Z,98216.47
2023-04-04T18:45:40.321Z,98217.38
2023-04-04T18:48:12.760Z,98221.69
2023-04-04T18:50:41.071Z,98220.25
2023-04-04T18:53:10.138Z,98216.72
2023-04-04T18:55:38.211Z,98223.53
2023-04-04T18:58:06.939Z,98216.81
2023-04-04T19:00:37.756Z,98211.50
2023-04-04T19:03:07.645Z,98214.66
2023-04-04T19:05:38.019Z,98216.94
2023-04-04T19:08:07.622Z,98222.16
2023-04-04T19:10:35.947Z,98211.97
2023-04-04T19:13:06.170Z,98224.78
2023-04-04T19:15:34.846Z,98223.59
2023-04-04T19:18:08.843Z,98223.63
2023-04-04T19:20:38.546Z,98233.50
2023-04-04T19:23:10.370Z,98222.63
2023-04-04T19:25:40.195Z,98218.50
2023-04-04T19:28:10.822Z,98230.13
2023-04-04T19:30:52.917Z,98229.13
2023-04-04T19:33:32.509Z,98229.59
2023-04-04T19:36:07.710Z,98231.00
2023-04-04T19:38:36.557Z,98228.56
2023-04-04T19:41:05.183Z,98232.63
2023-04-04T19:43:33.682Z,98236.16
2023-04-04T19:46:08.342Z,98229.88
2023-04-04T19:48:44.181Z,98223.06
2023-04-04T19:51:29.240Z,98228.88
2023-04-04T19:53:58.872Z,98226.53
2023-04-04T19:56:27.513Z,98230.09
2023-04-04T19:58:56.303Z,98228.06
2023-04-04T20:01:25.445Z,98226.19
2023-04-04T20:03:53.604Z,98240.13
2023-04-04T20:06:27.344Z,98238.03
2023-04-04T20:08:59.820Z,98229.75
2023-04-04T20:11:30.190Z,98231.47
2023-04-04T20:13:58.282Z,98233.94
2023-04-04T20:16:26.502Z,98233.19
2023-04-04T20:18:57.827Z,98230.47
2023-04-04T20:21:28.637Z,98227.88
2023-04-04T20:23:57.884Z,98232.56
2023-04-04T20:26:55.099Z,98229.84
2023-04-04T20:29:24.418Z,98230.78
2023-04-04T20:31:53.441Z,98233.72
2023-04-04T20:34:45.750Z,98235.56
2023-04-04T20:37:16.547Z,98224.84
2023-04-04T20:39:47.697Z,98230.53
2023-04-04T20:42:35.056Z,98225.88
2023-04-04T20:45:34.873Z,98229.19
2023-04-04T20:48:06.661Z,98231.84
2023-04-04T20:50:46.526Z,98234.00
2023-04-04T20:53:22.591Z,98232.28
2023-04-04T20:55:51.542Z,98224.69
2023-04-04T20:58:29.824Z,98223.84
2023-04-04T21:00:58.894Z,98218.91
2023-04-04T21:03:37.000Z,98219.13
2023-04-04T21:06:12.664Z,98217.97
2023-04-04T21:08:44.809Z,98221.34
2023-04-04T21:11:12.961Z,98218.91
2023-04-04T21:13:41.466Z,98222.13
2023-04-04T21:16:13.227Z,98219.06
2023-04-04T21:18:41.908Z,98228.13
2023-04-04T21:21:20.672Z,98218.56
2023-04-04T21:23:51.156Z,98221.22
2023-04-04T21:26:41.784Z,98215.25
2023-04-04T21:29:11.447Z,98223.41
2023-04-04T21:31:40.123Z,98214.53
2023-04-04T21:34:10.608Z,98213.50
2023-04-04T21:36:38.645Z,98208.44
2023-04-04T21:39:11.447Z,98209.81
2023-04-04T21:41:39.440Z,98214.66
2023-04-04T21:44:09.025Z,98205.56
2023-04-04T21:46:37.954Z,98212.00
2023-04-04T21:49:06.485Z,98211.81
2023-04-04T21:51:34.385Z,98214.09
2023-04-04T21:54:02.577Z,98210.59
2023-04-04T21:56:32.794Z,98206.31
2023-04-04T21:59:01.518Z,98206.84
2023-04-04T22:01:30.710Z,98210.69
2023-04-04T22:03:59.036Z,98213.56
2023-04-04T22:06:28.360Z,98199.97
2023-04-04T22:08:57.396Z,98195.06
2023-04-04T22:11:26.217Z,98192.66
2023-04-04T22:14:04.292Z,98197.25
2023-04-04T22:16:36.949Z,98196.25
2023-04-04T22:19:05.774Z,98196.19
2023-04-04T22:21:37.068Z,98195.22
2023-04-04T22:24:06.899Z,98190.09
2023-04-04T22:26:35.478Z,98182.94
2023-04-04T22:29:06.188Z,98186.13
2023-04-04T22:31:35.324Z,98189.44
2023-04-04T22:34:04.068Z,98186.91
2023-04-04T22:36:34.582Z,98188.69
2023-04-04T22:39:02.997Z,98190.03
2023-04-04T22:41:31.083Z,98187.66
2023-04-04T22:43:59.349Z,98186.50
2023-04-04T22:46:30.022Z,98190.16
2023-04-04T22:49:06.462Z,98178.38
2023-04-04T22:51:43.348Z,98177.38
2023-04-04T22:54:13.163Z,98180.94
2023-04-04T22:56:41.849Z,98181.47
2023-04-04T22:59:10.023Z,98181.41
2023-04-04T23:01:41.290Z,98183.19
2023-04-04T23:04:09.821Z,98182.47
2023-04-04T23:06:38.390Z,98185.91
2023-04-04T23:09:07.963Z,98180.59
2023-04-04T23:11:37.069Z,98181.41
2023-04-04T23:14:08.853Z,98180.03
2023-04-04T23:16:37.383Z,98170.34
2023-04-04T23:19:06.797Z,98174.09
2023-04-04T23:21:34.839Z,98164.19
2023-04-04T23:24:03.004Z,98169.97
2023-04-04T23:26:32.610Z,98162.50
2023-04-04T23:29:01.541Z,98151.63
2023-04-04T23:31:29.851Z,98157.63
2023-04-04T23:33:58.238Z,98152.16
2023-04-04T23:36:27.726Z,98149.44
2023-04-04T23:38:55.737Z,98155.44
2023-04-04T23:41:23.730Z,98145.78
2023-04-04T23:43:51.813Z,98157.69
2023-04-04T23:46:20.009Z,98148.41
2023-04-04T23:48:49.543Z,98148.06
2023-04-04T23:51:17.687Z,98153.66
2023-04-04T23:53:47.094Z,98146.63
2023-04-04T23:56:15.117Z,98147.41
2023-04-04T23:58:43.054Z,98147.13
